Главная страница
METAR-TAF:

METAR-TAF

Аэропорты :

Зонгулдак, Турция

широта: 41-27N, долгота: 031-48E, высота над уровнем моря: 136 м

Текущие метеонаблюдения

Эта сводка был подготовлена 32 минут назад, в 05:50 UTC
Ветер 6 Узел от восточный
Температура 20°C
Влажность 88%
Давление 1016 hPa
Видимость 10 км и более
небольшая облачность на высоте 800 фута
Отдельные облака на высоте 3000 фута
Рассеянная облачность на высоте 9000 фута

METAR: LTAS 230550Z 08006KT 9999 FEW008 SCT030 BKN090 20/18 Q1016

Время: 09:22 (06:22 UTC)

Прогноз

Эта сводка был подготовлена 1 час и 42 минут назад, в 04:40 UTC
Прогноз действительный с 23-го 06 UTC до 23-го 15 UTC
Ветер 2 Узел переменных направлений
Видимость: 8000 м
Отдельные облака на высоте 3000 фута
временами
С 23-го 06 UTC до 23-го 09 UTC
Видимость: 2500 м
Рассеянная облачность на высоте 2500 фута
Рассеянная облачность на высоте 8000 фута
небольшой дождь, дымка

TAF: LTAS 230440Z 2306/2315 VRB02KT 8000 SCT030 TEMPO 2306/2309 2500 -RA BR BKN025 BKN080

Метеонаблюдения и прогнозы для более 4000 аэропортов (сводки METAR и TAF).

Имеющиеся станции представлены на карте желтыми и красными точками.

Чтобы увидеть название станции, наведите на нее мышь.

Затем щелкните, чтобы увидеть метеонаблюдения и метеопрогнозы.

Управление картой: чтобы увеличить масштаб, щелкните зеленые кнопки с черным крестиком; чтобы уменьшить масштаб, щелкните зеленую кнопку с тире; для просмотра соседних карт щелкайте зеленые стрелки.


METAR-TAF: